Hlavní strana
METAR-TAF:

METAR-TAF

Letiště :

Letiště Louisville

Louisville, Kentucky, Spojené státy americké

zeměpisná šířka: 38-10-38N, zeměpisná délka: 085-43-47W, výška: 151 m

Aktuální stav počasí

Zpráva byla vytvořena před 13 minutami, v 10:56 UTC
Západoseverozápadní vítr 13 kt s nárazy do 21 kt
Teplota 2°C
Vlhkost vzduchu 64%
Tlak 1017 hPa
Viditelnost: 16.1 km
Polojasno ve výšce 2000 ft
Oblačno až skoro zataženo ve výšce 4900 ft
Zataženo ve výšce 10000 ft

METAR: KSDF 101056Z 30013G21KT 10SM SCT020 BKN049 OVC100 02/M04 A3002 RMK AO2 SLP167 T00171039

Čas: 06:09 (11:09 UTC)

Předpověď počasí

Zpráva byla vytvořena před 1 hodinou a 2 minutami, v 10:07 UTC
Předpověď platná od 10 v 10 UTC do 11 v 12 UTC
Západoseverozápadní vítr 13 kt s nárazy do 19 kt
Viditelnost: 10 km
Polojasno ve výšce 2500 ft
Zataženo ve výšce 7000 ft
Od 10 v 1600 UTC
Západoseverozápadní vítr 8 kt
Viditelnost: 10 km
Zataženo ve výšce 13000 ft

TAF: KSDF 101007Z 1010/1112 30013G19KT P6SM SCT025 OVC070 FM101600 29008KT P6SM OVC130

Stav a předpovědi počasí z více než 4 000 letišť (zprávy METAR a TAF).

Červené a žluté tečky na mapě představují dostupné meteorologické stanice.

Když kurzor umístíte na tečku, zobrazí se název stanice.

Pak kliknutím zobrazíte stav a předpověď počasí.

Chcete-li změnit mapu, kliknutím na zelené tlačítko se znaménkem +mapu přiblížíte, kliknutím na zelené tlačítko se znaménkem – mapu oddálíte a kliknutím na zelené šipky přejdete na sousední mapy.


METAR-TAF: